sensor_id;sensor_type;location;lat;lon;timestamp;temperature;humidity
22161;DHT22;49035;48.812;11.762;2022-09-27T00:01:04;11.50;99.90
22161;DHT22;49035;48.812;11.762;2022-09-27T00:03:30;11.30;99.90
22161;DHT22;49035;48.812;11.762;2022-09-27T00:06:13;11.30;99.90
22161;DHT22;49035;48.812;11.762;2022-09-27T00:08:39;11.20;99.90
22161;DHT22;49035;48.812;11.762;2022-09-27T00:11:28;11.10;99.90
22161;DHT22;49035;48.812;11.762;2022-09-27T00:13:55;10.90;99.90
22161;DHT22;49035;48.812;11.762;2022-09-27T00:16:22;10.80;99.90
22161;DHT22;49035;48.812;11.762;2022-09-27T00:18:49;10.70;99.90
22161;DHT22;49035;48.812;11.762;2022-09-27T00:21:15;10.60;99.90
22161;DHT22;49035;48.812;11.762;2022-09-27T00:23:41;10.50;99.90
22161;DHT22;49035;48.812;11.762;2022-09-27T00:26:09;10.30;99.90
22161;DHT22;49035;48.812;11.762;2022-09-27T00:28:35;10.20;99.90
22161;DHT22;49035;48.812;11.762;2022-09-27T00:31:01;10.10;99.90
22161;DHT22;49035;48.812;11.762;2022-09-27T00:33:27;10.00;99.90
22161;DHT22;49035;48.812;11.762;2022-09-27T00:35:52;10.00;99.90
22161;DHT22;49035;48.812;11.762;2022-09-27T00:38:18;9.90;99.90
22161;DHT22;49035;48.812;11.762;2022-09-27T00:40:44;9.90;99.90
22161;DHT22;49035;48.812;11.762;2022-09-27T00:43:19;9.90;99.90
22161;DHT22;49035;48.812;11.762;2022-09-27T00:45:48;9.80;99.90
22161;DHT22;49035;48.812;11.762;2022-09-27T00:48:18;9.80;99.90
22161;DHT22;49035;48.812;11.762;2022-09-27T00:50:46;9.80;99.90
22161;DHT22;49035;48.812;11.762;2022-09-27T00:53:22;9.70;99.90
22161;DHT22;49035;48.812;11.762;2022-09-27T00:55:53;9.70;99.90
22161;DHT22;49035;48.812;11.762;2022-09-27T00:58:23;9.70;99.90
22161;DHT22;49035;48.812;11.762;2022-09-27T01:00:54;9.60;99.90
22161;DHT22;49035;48.812;11.762;2022-09-27T01:05:57;9.60;99.90
22161;DHT22;49035;48.812;11.762;2022-09-27T01:08:23;9.60;99.90
22161;DHT22;49035;48.812;11.762;2022-09-27T01:11:19;9.60;99.90
22161;DHT22;49035;48.812;11.762;2022-09-27T01:17:22;9.70;99.90
22161;DHT22;49035;48.812;11.762;2022-09-27T01:20:27;9.70;99.90
22161;DHT22;49035;48.812;11.762;2022-09-27T01:28:50;9.60;99.90
22161;DHT22;49035;48.812;11.762;2022-09-27T01:32:09;9.70;99.90
22161;DHT22;49035;48.812;11.762;2022-09-27T01:37:20;9.70;99.90
22161;DHT22;49035;48.812;11.762;2022-09-27T01:40:09;9.70;99.90
22161;DHT22;49035;48.812;11.762;2022-09-27T01:42:36;9.70;99.90
22161;DHT22;49035;48.812;11.762;2022-09-27T01:45:10;9.70;99.90
22161;DHT22;49035;48.812;11.762;2022-09-27T01:47:39;9.70;99.90
22161;DHT22;49035;48.812;11.762;2022-09-27T01:50:52;9.70;99.90
22161;DHT22;49035;48.812;11.762;2022-09-27T01:53:06;9.70;99.90
22161;DHT22;49035;48.812;11.762;2022-09-27T01:55:36;9.70;99.90
22161;DHT22;49035;48.812;11.762;2022-09-27T01:58:15;9.70;99.90
22161;DHT22;49035;48.812;11.762;2022-09-27T02:00:49;9.60;99.90
22161;DHT22;49035;48.812;11.762;2022-09-27T02:03:20;9.70;99.90
22161;DHT22;49035;48.812;11.762;2022-09-27T02:06:09;9.70;99.90
22161;DHT22;49035;48.812;11.762;2022-09-27T02:08:52;9.60;99.90
22161;DHT22;49035;48.812;11.762;2022-09-27T02:11:19;9.70;99.90
22161;DHT22;49035;48.812;11.762;2022-09-27T02:13:57;9.70;99.90
22161;DHT22;49035;48.812;11.762;2022-09-27T02:16:36;9.70;99.90
22161;DHT22;49035;48.812;11.762;2022-09-27T02:22:00;9.70;99.90
22161;DHT22;49035;48.812;11.762;2022-09-27T02:24:39;9.70;99.90
22161;DHT22;49035;48.812;11.762;2022-09-27T02:27:23;9.70;99.90
22161;DHT22;49035;48.812;11.762;2022-09-27T02:30:01;9.70;99.90
22161;DHT22;49035;48.812;11.762;2022-09-27T02:32:30;9.70;99.90
22161;DHT22;49035;48.812;11.762;2022-09-27T02:35:00;9.70;99.90
22161;DHT22;49035;48.812;11.762;2022-09-27T02:37:26;9.70;99.90
22161;DHT22;49035;48.812;11.762;2022-09-27T02:39:52;9.70;99.90
22161;DHT22;49035;48.812;11.762;2022-09-27T02:42:18;9.70;99.90
22161;DHT22;49035;48.812;11.762;2022-09-27T02:44:44;9.70;99.90
22161;DHT22;49035;48.812;11.762;2022-09-27T02:56:02;9.70;99.90
22161;DHT22;49035;48.812;11.762;2022-09-27T03:04:03;9.60;99.90
22161;DHT22;49035;48.812;11.762;2022-09-27T03:06:34;9.60;99.90
22161;DHT22;49035;48.812;11.762;2022-09-27T03:09:00;9.70;99.90
22161;DHT22;49035;48.812;11.762;2022-09-27T03:11:26;9.60;99.90
22161;DHT22;49035;48.812;11.762;2022-09-27T03:13:52;9.60;99.90
22161;DHT22;49035;48.812;11.762;2022-09-27T03:16:17;9.60;99.90
22161;DHT22;49035;48.812;11.762;2022-09-27T03:18:43;9.60;99.90
22161;DHT22;49035;48.812;11.762;2022-09-27T03:21:09;9.60;99.90
22161;DHT22;49035;48.812;11.762;2022-09-27T03:23:34;9.60;99.90
22161;DHT22;49035;48.812;11.762;2022-09-27T03:26:00;9.60;99.90
22161;DHT22;49035;48.812;11.762;2022-09-27T03:28:25;9.60;99.90
22161;DHT22;49035;48.812;11.762;2022-09-27T03:30:53;9.50;99.90
22161;DHT22;49035;48.812;11.762;2022-09-27T03:33:19;9.50;99.90
22161;DHT22;49035;48.812;11.762;2022-09-27T03:35:45;9.50;99.90
22161;DHT22;49035;48.812;11.762;2022-09-27T03:38:10;9.50;99.90
22161;DHT22;49035;48.812;11.762;2022-09-27T03:40:37;9.50;99.90
22161;DHT22;49035;48.812;11.762;2022-09-27T03:43:02;9.40;99.90
22161;DHT22;49035;48.812;11.762;2022-09-27T03:45:28;9.50;99.90
22161;DHT22;49035;48.812;11.762;2022-09-27T03:47:54;9.50;99.90
22161;DHT22;49035;48.812;11.762;2022-09-27T03:50:19;9.50;99.90
22161;DHT22;49035;48.812;11.762;2022-09-27T03:52:45;9.50;99.90
22161;DHT22;49035;48.812;11.762;2022-09-27T03:55:11;9.50;99.90
22161;DHT22;49035;48.812;11.762;2022-09-27T03:57:37;9.50;99.90
22161;DHT22;49035;48.812;11.762;2022-09-27T04:00:05;9.50;99.90
22161;DHT22;49035;48.812;11.762;2022-09-27T04:02:31;9.60;99.90
22161;DHT22;49035;48.812;11.762;2022-09-27T04:04:56;9.50;99.90
22161;DHT22;49035;48.812;11.762;2022-09-27T04:07:22;9.50;99.90
22161;DHT22;49035;48.812;11.762;2022-09-27T04:09:48;9.60;99.90
22161;DHT22;49035;48.812;11.762;2022-09-27T04:12:14;9.50;99.90
22161;DHT22;49035;48.812;11.762;2022-09-27T04:14:40;9.50;99.90
22161;DHT22;49035;48.812;11.762;2022-09-27T04:17:05;9.50;99.90
22161;DHT22;49035;48.812;11.762;2022-09-27T04:19:31;9.50;99.90
22161;DHT22;49035;48.812;11.762;2022-09-27T04:21:57;9.50;99.90
22161;DHT22;49035;48.812;11.762;2022-09-27T04:24:22;9.50;99.90
22161;DHT22;49035;48.812;11.762;2022-09-27T04:26:48;9.50;99.90
22161;DHT22;49035;48.812;11.762;2022-09-27T04:29:14;9.60;99.90
22161;DHT22;49035;48.812;11.762;2022-09-27T04:31:41;9.50;99.90
22161;DHT22;49035;48.812;11.762;2022-09-27T04:34:08;9.50;99.90
22161;DHT22;49035;48.812;11.762;2022-09-27T04:36:34;9.50;99.90
22161;DHT22;49035;48.812;11.762;2022-09-27T04:39:02;9.50;99.90
22161;DHT22;49035;48.812;11.762;2022-09-27T04:41:28;9.60;99.90
22161;DHT22;49035;48.812;11.762;2022-09-27T04:43:55;9.60;99.90
22161;DHT22;49035;48.812;11.762;2022-09-27T04:46:21;9.60;99.90
22161;DHT22;49035;48.812;11.762;2022-09-27T04:48:47;9.60;99.90
22161;DHT22;49035;48.812;11.762;2022-09-27T04:51:14;9.50;99.90
22161;DHT22;49035;48.812;11.762;2022-09-27T04:53:42;9.40;99.90
22161;DHT22;49035;48.812;11.762;2022-09-27T04:56:08;9.50;99.90
22161;DHT22;49035;48.812;11.762;2022-09-27T04:58:33;9.50;99.90
22161;DHT22;49035;48.812;11.762;2022-09-27T05:01:00;9.60;99.90
22161;DHT22;49035;48.812;11.762;2022-09-27T05:03:27;9.60;99.90
22161;DHT22;49035;48.812;11.762;2022-09-27T05:05:53;9.60;99.90
22161;DHT22;49035;48.812;11.762;2022-09-27T05:08:19;9.70;99.90
22161;DHT22;49035;48.812;11.762;2022-09-27T05:10:45;9.70;99.90
22161;DHT22;49035;48.812;11.762;2022-09-27T05:13:12;9.60;99.90
22161;DHT22;49035;48.812;11.762;2022-09-27T05:15:38;9.70;99.90
22161;DHT22;49035;48.812;11.762;2022-09-27T05:18:04;9.70;99.90
22161;DHT22;49035;48.812;11.762;2022-09-27T05:20:32;9.70;99.90
22161;DHT22;49035;48.812;11.762;2022-09-27T05:22:57;9.70;99.90
22161;DHT22;49035;48.812;11.762;2022-09-27T05:25:23;9.70;99.90
22161;DHT22;49035;48.812;11.762;2022-09-27T05:27:49;9.70;99.90
22161;DHT22;49035;48.812;11.762;2022-09-27T05:30:15;9.70;99.90
22161;DHT22;49035;48.812;11.762;2022-09-27T05:32:45;9.70;99.90
22161;DHT22;49035;48.812;11.762;2022-09-27T05:35:15;9.80;99.90
22161;DHT22;49035;48.812;11.762;2022-09-27T05:37:42;9.80;99.90
22161;DHT22;49035;48.812;11.762;2022-09-27T05:40:08;9.80;99.90
22161;DHT22;49035;48.812;11.762;2022-09-27T05:42:34;9.80;99.90
22161;DHT22;49035;48.812;11.762;2022-09-27T05:45:05;9.90;99.90
22161;DHT22;49035;48.812;11.762;2022-09-27T05:47:31;10.00;99.90
22161;DHT22;49035;48.812;11.762;2022-09-27T05:49:57;10.00;99.90
22161;DHT22;49035;48.812;11.762;2022-09-27T05:52:22;10.00;99.90
22161;DHT22;49035;48.812;11.762;2022-09-27T05:54:48;9.90;99.90
22161;DHT22;49035;48.812;11.762;2022-09-27T05:57:13;9.90;99.90
22161;DHT22;49035;48.812;11.762;2022-09-27T05:59:39;9.80;99.90
22161;DHT22;49035;48.812;11.762;2022-09-27T06:02:05;9.80;99.90
22161;DHT22;49035;48.812;11.762;2022-09-27T06:04:31;9.70;99.90
22161;DHT22;49035;48.812;11.762;2022-09-27T06:06:57;9.70;99.90
22161;DHT22;49035;48.812;11.762;2022-09-27T06:09:23;9.80;99.90
22161;DHT22;49035;48.812;11.762;2022-09-27T06:11:49;9.70;99.90
22161;DHT22;49035;48.812;11.762;2022-09-27T06:14:15;9.60;99.90
22161;DHT22;49035;48.812;11.762;2022-09-27T06:16:41;9.60;99.90
22161;DHT22;49035;48.812;11.762;2022-09-27T06:19:06;9.60;99.90
22161;DHT22;49035;48.812;11.762;2022-09-27T06:21:32;9.40;99.90
22161;DHT22;49035;48.812;11.762;2022-09-27T06:23:58;9.50;99.90
22161;DHT22;49035;48.812;11.762;2022-09-27T06:26:25;9.60;99.90
22161;DHT22;49035;48.812;11.762;2022-09-27T06:28:54;9.60;99.90
22161;DHT22;49035;48.812;11.762;2022-09-27T06:31:20;9.50;99.90
22161;DHT22;49035;48.812;11.762;2022-09-27T06:33:46;9.50;99.90
22161;DHT22;49035;48.812;11.762;2022-09-27T06:36:12;9.70;99.90
22161;DHT22;49035;48.812;11.762;2022-09-27T06:38:38;10.00;99.90
22161;DHT22;49035;48.812;11.762;2022-09-27T06:41:04;10.30;99.90
22161;DHT22;49035;48.812;11.762;2022-09-27T06:43:37;10.30;99.90
22161;DHT22;49035;48.812;11.762;2022-09-27T06:46:03;10.50;99.90
22161;DHT22;49035;48.812;11.762;2022-09-27T06:48:30;10.60;99.90
22161;DHT22;49035;48.812;11.762;2022-09-27T06:50:56;10.60;99.90
22161;DHT22;49035;48.812;11.762;2022-09-27T06:53:22;10.80;99.90
22161;DHT22;49035;48.812;11.762;2022-09-27T06:55:48;10.90;99.90
22161;DHT22;49035;48.812;11.762;2022-09-27T06:58:15;11.00;99.90
22161;DHT22;49035;48.812;11.762;2022-09-27T07:01:00;11.00;99.90
22161;DHT22;49035;48.812;11.762;2022-09-27T07:03:26;11.00;99.90
22161;DHT22;49035;48.812;11.762;2022-09-27T07:06:03;11.20;99.90
22161;DHT22;49035;48.812;11.762;2022-09-27T07:08:29;11.20;99.90
22161;DHT22;49035;48.812;11.762;2022-09-27T07:11:01;11.40;99.90
22161;DHT22;49035;48.812;11.762;2022-09-27T07:13:27;11.70;99.90
22161;DHT22;49035;48.812;11.762;2022-09-27T07:15:55;12.10;99.90
22161;DHT22;49035;48.812;11.762;2022-09-27T07:18:21;12.40;99.90
22161;DHT22;49035;48.812;11.762;2022-09-27T07:20:47;12.50;99.90
22161;DHT22;49035;48.812;11.762;2022-09-27T07:23:13;12.60;99.90
22161;DHT22;49035;48.812;11.762;2022-09-27T07:25:39;12.50;99.90
22161;DHT22;49035;48.812;11.762;2022-09-27T07:28:07;12.20;99.90
22161;DHT22;49035;48.812;11.762;2022-09-27T07:30:35;12.20;99.90
22161;DHT22;49035;48.812;11.762;2022-09-27T07:33:03;12.40;99.90
22161;DHT22;49035;48.812;11.762;2022-09-27T07:35:30;12.40;99.90
22161;DHT22;49035;48.812;11.762;2022-09-27T07:37:56;12.00;99.90
22161;DHT22;49035;48.812;11.762;2022-09-27T07:40:24;11.90;99.90
22161;DHT22;49035;48.812;11.762;2022-09-27T07:42:57;12.10;99.90
22161;DHT22;49035;48.812;11.762;2022-09-27T07:45:26;12.10;99.90
22161;DHT22;49035;48.812;11.762;2022-09-27T07:47:52;12.20;99.90
22161;DHT22;49035;48.812;11.762;2022-09-27T07:50:18;12.20;99.90
22161;DHT22;49035;48.812;11.762;2022-09-27T07:52:46;12.30;99.90
22161;DHT22;49035;48.812;11.762;2022-09-27T07:55:13;12.30;99.90
22161;DHT22;49035;48.812;11.762;2022-09-27T07:57:39;12.30;99.90
22161;DHT22;49035;48.812;11.762;2022-09-27T08:00:08;12.10;99.90
22161;DHT22;49035;48.812;11.762;2022-09-27T08:02:34;11.90;99.90
22161;DHT22;49035;48.812;11.762;2022-09-27T08:05:01;11.70;99.90
22161;DHT22;49035;48.812;11.762;2022-09-27T08:07:27;11.60;99.90
22161;DHT22;49035;48.812;11.762;2022-09-27T08:09:53;11.60;99.90
22161;DHT22;49035;48.812;11.762;2022-09-27T08:12:19;11.60;99.90
22161;DHT22;49035;48.812;11.762;2022-09-27T08:14:46;11.40;99.90
22161;DHT22;49035;48.812;11.762;2022-09-27T08:17:12;11.20;99.90
22161;DHT22;49035;48.812;11.762;2022-09-27T08:19:38;11.00;99.90
22161;DHT22;49035;48.812;11.762;2022-09-27T08:22:05;11.00;99.90
22161;DHT22;49035;48.812;11.762;2022-09-27T08:24:31;11.20;99.90
22161;DHT22;49035;48.812;11.762;2022-09-27T08:26:57;11.20;99.90
22161;DHT22;49035;48.812;11.762;2022-09-27T08:29:23;11.20;99.90
22161;DHT22;49035;48.812;11.762;2022-09-27T08:31:50;11.20;99.90
22161;DHT22;49035;48.812;11.762;2022-09-27T08:34:15;11.30;99.90
22161;DHT22;49035;48.812;11.762;2022-09-27T08:36:42;11.40;99.90
22161;DHT22;49035;48.812;11.762;2022-09-27T08:39:08;11.50;99.90
22161;DHT22;49035;48.812;11.762;2022-09-27T08:41:37;11.90;99.90
22161;DHT22;49035;48.812;11.762;2022-09-27T08:47:20;12.20;99.90
22161;DHT22;49035;48.812;11.762;2022-09-27T08:49:31;12.40;99.90
22161;DHT22;49035;48.812;11.762;2022-09-27T08:51:58;12.70;99.90
22161;DHT22;49035;48.812;11.762;2022-09-27T08:54:27;13.00;99.90
22161;DHT22;49035;48.812;11.762;2022-09-27T08:57:02;13.10;99.90
22161;DHT22;49035;48.812;11.762;2022-09-27T08:59:34;13.00;99.90
22161;DHT22;49035;48.812;11.762;2022-09-27T09:02:01;13.10;99.90
22161;DHT22;49035;48.812;11.762;2022-09-27T09:04:38;13.40;99.90
22161;DHT22;49035;48.812;11.762;2022-09-27T09:07:09;13.60;99.90
22161;DHT22;49035;48.812;11.762;2022-09-27T09:09:43;14.30;99.90
22161;DHT22;49035;48.812;11.762;2022-09-27T09:12:30;15.00;99.90
22161;DHT22;49035;48.812;11.762;2022-09-27T09:21:08;13.40;99.90
22161;DHT22;49035;48.812;11.762;2022-09-27T09:35:02;12.10;99.90
22161;DHT22;49035;48.812;11.762;2022-09-27T09:37:48;12.20;99.90
22161;DHT22;49035;48.812;11.762;2022-09-27T09:42:45;12.30;99.90
22161;DHT22;49035;48.812;11.762;2022-09-27T09:45:19;12.50;99.90
22161;DHT22;49035;48.812;11.762;2022-09-27T09:50:26;13.40;99.90
22161;DHT22;49035;48.812;11.762;2022-09-27T09:53:04;13.70;99.90
22161;DHT22;49035;48.812;11.762;2022-09-27T09:55:37;13.70;99.90
22161;DHT22;49035;48.812;11.762;2022-09-27T09:58:21;13.30;99.90
22161;DHT22;49035;48.812;11.762;2022-09-27T10:00:50;13.00;99.90
22161;DHT22;49035;48.812;11.762;2022-09-27T10:03:18;12.90;99.90
22161;DHT22;49035;48.812;11.762;2022-09-27T10:05:44;12.90;99.90
22161;DHT22;49035;48.812;11.762;2022-09-27T10:08:21;13.00;99.90
22161;DHT22;49035;48.812;11.762;2022-09-27T10:10:47;13.20;99.90
22161;DHT22;49035;48.812;11.762;2022-09-27T10:13:18;13.80;99.90
22161;DHT22;49035;48.812;11.762;2022-09-27T10:15:54;13.90;99.90
22161;DHT22;49035;48.812;11.762;2022-09-27T10:18:21;14.30;99.90
22161;DHT22;49035;48.812;11.762;2022-09-27T10:20:54;14.30;99.90
22161;DHT22;49035;48.812;11.762;2022-09-27T10:23:22;14.50;99.90
22161;DHT22;49035;48.812;11.762;2022-09-27T10:25:58;14.20;99.90
22161;DHT22;49035;48.812;11.762;2022-09-27T10:30:59;13.40;99.90
22161;DHT22;49035;48.812;11.762;2022-09-27T10:33:25;13.60;99.90
22161;DHT22;49035;48.812;11.762;2022-09-27T10:35:52;13.30;99.90
22161;DHT22;49035;48.812;11.762;2022-09-27T10:40:44;13.00;99.90
22161;DHT22;49035;48.812;11.762;2022-09-27T10:43:34;13.50;99.90
22161;DHT22;49035;48.812;11.762;2022-09-27T10:46:18;14.00;99.90
22161;DHT22;49035;48.812;11.762;2022-09-27T10:48:46;14.10;99.90
22161;DHT22;49035;48.812;11.762;2022-09-27T10:51:24;13.60;99.90
22161;DHT22;49035;48.812;11.762;2022-09-27T10:53:51;13.70;99.90
22161;DHT22;49035;48.812;11.762;2022-09-27T10:56:28;13.80;99.90
22161;DHT22;49035;48.812;11.762;2022-09-27T10:58:54;14.10;99.90
22161;DHT22;49035;48.812;11.762;2022-09-27T11:01:21;13.80;99.90
22161;DHT22;49035;48.812;11.762;2022-09-27T11:03:58;14.10;99.90
22161;DHT22;49035;48.812;11.762;2022-09-27T11:08:51;14.30;99.20
22161;DHT22;49035;48.812;11.762;2022-09-27T11:11:25;14.20;99.90
22161;DHT22;49035;48.812;11.762;2022-09-27T11:14:05;14.20;99.80
22161;DHT22;49035;48.812;11.762;2022-09-27T11:25:07;14.10;99.90
22161;DHT22;49035;48.812;11.762;2022-09-27T11:30:22;14.40;99.00
22161;DHT22;49035;48.812;11.762;2022-09-27T11:36:04;14.50;99.80
22161;DHT22;49035;48.812;11.762;2022-09-27T11:46:34;14.10;97.60
22161;DHT22;49035;48.812;11.762;2022-09-27T11:52:24;13.10;99.90
22161;DHT22;49035;48.812;11.762;2022-09-27T11:57:35;14.00;99.80
22161;DHT22;49035;48.812;11.762;2022-09-27T12:00:21;13.70;99.20
22161;DHT22;49035;48.812;11.762;2022-09-27T12:06:05;13.70;98.90
22161;DHT22;49035;48.812;11.762;2022-09-27T12:09:07;14.00;98.80
22161;DHT22;49035;48.812;11.762;2022-09-27T12:11:44;14.30;99.90
22161;DHT22;49035;48.812;11.762;2022-09-27T12:14:42;14.20;98.60
22161;DHT22;49035;48.812;11.762;2022-09-27T12:17:12;13.50;97.60
22161;DHT22;49035;48.812;11.762;2022-09-27T12:19:46;12.30;99.90
22161;DHT22;49035;48.812;11.762;2022-09-27T12:22:22;11.00;99.90
22161;DHT22;49035;48.812;11.762;2022-09-27T12:24:51;10.00;99.90
22161;DHT22;49035;48.812;11.762;2022-09-27T12:27:42;10.00;99.90
22161;DHT22;49035;48.812;11.762;2022-09-27T12:30:13;10.60;99.90
22161;DHT22;49035;48.812;11.762;2022-09-27T12:33:14;11.20;99.90
22161;DHT22;49035;48.812;11.762;2022-09-27T12:35:53;11.20;99.90
22161;DHT22;49035;48.812;11.762;2022-09-27T12:38:49;11.20;99.90
22161;DHT22;49035;48.812;11.762;2022-09-27T12:41:19;11.40;99.90
22161;DHT22;49035;48.812;11.762;2022-09-27T12:43:48;11.70;99.90
22161;DHT22;49035;48.812;11.762;2022-09-27T12:46:30;12.20;99.90
22161;DHT22;49035;48.812;11.762;2022-09-27T12:51:54;13.10;99.90
22161;DHT22;49035;48.812;11.762;2022-09-27T12:57:23;14.20;99.90
22161;DHT22;49035;48.812;11.762;2022-09-27T12:59:59;14.80;99.90
22161;DHT22;49035;48.812;11.762;2022-09-27T13:05:49;15.40;99.90
22161;DHT22;49035;48.812;11.762;2022-09-27T13:22:55;15.00;99.50
22161;DHT22;49035;48.812;11.762;2022-09-27T13:25:47;14.70;99.90
22161;DHT22;49035;48.812;11.762;2022-09-27T13:31:04;14.10;99.90
22161;DHT22;49035;48.812;11.762;2022-09-27T13:49:43;12.40;99.90
22161;DHT22;49035;48.812;11.762;2022-09-27T13:54:59;12.00;99.90
22161;DHT22;49035;48.812;11.762;2022-09-27T14:00:23;11.60;99.90
22161;DHT22;49035;48.812;11.762;2022-09-27T14:03:37;11.60;99.90
22161;DHT22;49035;48.812;11.762;2022-09-27T14:05:50;11.90;99.90
22161;DHT22;49035;48.812;11.762;2022-09-27T14:10:57;13.30;99.90
22161;DHT22;49035;48.812;11.762;2022-09-27T14:13:24;13.90;99.90
22161;DHT22;49035;48.812;11.762;2022-09-27T14:15:51;14.00;99.90
22161;DHT22;49035;48.812;11.762;2022-09-27T14:18:18;13.90;99.90
22161;DHT22;49035;48.812;11.762;2022-09-27T14:20:45;13.80;99.90
22161;DHT22;49035;48.812;11.762;2022-09-27T14:23:21;13.80;99.90
22161;DHT22;49035;48.812;11.762;2022-09-27T14:25:49;13.60;99.90
22161;DHT22;49035;48.812;11.762;2022-09-27T14:28:23;13.80;99.90
22161;DHT22;49035;48.812;11.762;2022-09-27T14:31:21;14.20;99.90
22161;DHT22;49035;48.812;11.762;2022-09-27T14:33:49;14.70;99.90
22161;DHT22;49035;48.812;11.762;2022-09-27T14:36:30;15.40;98.20
22161;DHT22;49035;48.812;11.762;2022-09-27T14:39:21;15.30;96.30
22161;DHT22;49035;48.812;11.762;2022-09-27T14:41:48;14.90;94.90
22161;DHT22;49035;48.812;11.762;2022-09-27T14:44:16;14.70;99.80
22161;DHT22;49035;48.812;11.762;2022-09-27T14:46:43;14.50;99.60
22161;DHT22;49035;48.812;11.762;2022-09-27T14:49:21;14.30;98.90
22161;DHT22;49035;48.812;11.762;2022-09-27T14:51:52;13.80;97.90
22161;DHT22;49035;48.812;11.762;2022-09-27T14:54:27;13.40;99.90
22161;DHT22;49035;48.812;11.762;2022-09-27T14:56:55;13.20;99.90
22161;DHT22;49035;48.812;11.762;2022-09-27T14:59:25;13.00;99.90
22161;DHT22;49035;48.812;11.762;2022-09-27T15:01:56;12.80;99.90
22161;DHT22;49035;48.812;11.762;2022-09-27T15:04:25;12.50;99.90
22161;DHT22;49035;48.812;11.762;2022-09-27T15:06:54;12.00;99.90
22161;DHT22;49035;48.812;11.762;2022-09-27T15:09:21;11.40;99.90
22161;DHT22;49035;48.812;11.762;2022-09-27T15:11:54;10.80;99.90
22161;DHT22;49035;48.812;11.762;2022-09-27T15:14:22;10.40;99.90
22161;DHT22;49035;48.812;11.762;2022-09-27T15:16:50;10.10;99.90
22161;DHT22;49035;48.812;11.762;2022-09-27T15:19:25;9.90;99.90
22161;DHT22;49035;48.812;11.762;2022-09-27T15:21:51;9.80;99.90
22161;DHT22;49035;48.812;11.762;2022-09-27T15:24:43;9.50;99.90
22161;DHT22;49035;48.812;11.762;2022-09-27T15:29:53;8.60;99.90
22161;DHT22;49035;48.812;11.762;2022-09-27T15:32:22;8.20;99.90
22161;DHT22;49035;48.812;11.762;2022-09-27T15:34:49;8.00;99.90
22161;DHT22;49035;48.812;11.762;2022-09-27T15:37:35;8.00;99.90
22161;DHT22;49035;48.812;11.762;2022-09-27T15:42:58;8.00;99.90
22161;DHT22;49035;48.812;11.762;2022-09-27T15:45:30;8.10;99.90
22161;DHT22;49035;48.812;11.762;2022-09-27T15:48:13;8.30;99.90
22161;DHT22;49035;48.812;11.762;2022-09-27T15:50:39;8.30;99.90
22161;DHT22;49035;48.812;11.762;2022-09-27T15:53:06;8.40;99.90
22161;DHT22;49035;48.812;11.762;2022-09-27T15:55:43;8.30;99.90
22161;DHT22;49035;48.812;11.762;2022-09-27T15:58:18;8.30;99.90
22161;DHT22;49035;48.812;11.762;2022-09-27T16:00:59;8.30;99.90
22161;DHT22;49035;48.812;11.762;2022-09-27T16:03:27;8.30;99.90
22161;DHT22;49035;48.812;11.762;2022-09-27T16:05:57;8.40;99.90
22161;DHT22;49035;48.812;11.762;2022-09-27T16:08:25;8.60;99.90
22161;DHT22;49035;48.812;11.762;2022-09-27T16:10:53;8.80;99.90
22161;DHT22;49035;48.812;11.762;2022-09-27T16:13:19;8.70;99.90
22161;DHT22;49035;48.812;11.762;2022-09-27T16:15:46;8.60;99.90
22161;DHT22;49035;48.812;11.762;2022-09-27T16:18:12;8.50;99.90
22161;DHT22;49035;48.812;11.762;2022-09-27T16:20:38;8.40;99.90
22161;DHT22;49035;48.812;11.762;2022-09-27T16:23:04;8.30;99.90
22161;DHT22;49035;48.812;11.762;2022-09-27T16:25:30;8.30;99.90
22161;DHT22;49035;48.812;11.762;2022-09-27T16:27:57;8.30;99.90
22161;DHT22;49035;48.812;11.762;2022-09-27T16:30:23;8.20;99.90
22161;DHT22;49035;48.812;11.762;2022-09-27T16:32:48;8.20;99.90
22161;DHT22;49035;48.812;11.762;2022-09-27T16:35:16;8.30;99.90
22161;DHT22;49035;48.812;11.762;2022-09-27T16:37:42;8.30;99.90
22161;DHT22;49035;48.812;11.762;2022-09-27T16:40:08;8.20;99.90
22161;DHT22;49035;48.812;11.762;2022-09-27T16:42:35;8.30;99.90
22161;DHT22;49035;48.812;11.762;2022-09-27T16:45:01;8.10;99.90
22161;DHT22;49035;48.812;11.762;2022-09-27T16:47:27;8.00;99.90
22161;DHT22;49035;48.812;11.762;2022-09-27T16:49:53;7.90;99.90
22161;DHT22;49035;48.812;11.762;2022-09-27T16:52:37;7.90;99.90
22161;DHT22;49035;48.812;11.762;2022-09-27T16:55:04;7.90;99.90
22161;DHT22;49035;48.812;11.762;2022-09-27T16:57:31;7.90;99.90
22161;DHT22;49035;48.812;11.762;2022-09-27T17:00:02;7.90;99.90
22161;DHT22;49035;48.812;11.762;2022-09-27T17:02:28;7.90;99.90
22161;DHT22;49035;48.812;11.762;2022-09-27T17:04:54;8.00;99.90
22161;DHT22;49035;48.812;11.762;2022-09-27T17:07:20;7.90;99.90
22161;DHT22;49035;48.812;11.762;2022-09-27T17:09:45;7.80;99.90
22161;DHT22;49035;48.812;11.762;2022-09-27T17:12:13;7.80;99.90
22161;DHT22;49035;48.812;11.762;2022-09-27T17:14:39;7.80;99.90
22161;DHT22;49035;48.812;11.762;2022-09-27T17:17:04;7.80;99.90
22161;DHT22;49035;48.812;11.762;2022-09-27T17:19:30;7.80;99.90
22161;DHT22;49035;48.812;11.762;2022-09-27T17:22:00;7.70;99.90
22161;DHT22;49035;48.812;11.762;2022-09-27T17:24:26;7.60;99.90
22161;DHT22;49035;48.812;11.762;2022-09-27T17:26:51;7.50;99.90
22161;DHT22;49035;48.812;11.762;2022-09-27T17:29:17;7.60;99.90
22161;DHT22;49035;48.812;11.762;2022-09-27T17:31:43;7.60;99.90
22161;DHT22;49035;48.812;11.762;2022-09-27T17:34:11;7.60;99.90
22161;DHT22;49035;48.812;11.762;2022-09-27T17:36:39;7.70;99.90
22161;DHT22;49035;48.812;11.762;2022-09-27T17:39:13;7.70;99.90
22161;DHT22;49035;48.812;11.762;2022-09-27T17:41:39;7.70;99.90
22161;DHT22;49035;48.812;11.762;2022-09-27T17:44:05;7.60;99.90
22161;DHT22;49035;48.812;11.762;2022-09-27T17:46:33;7.60;99.90
22161;DHT22;49035;48.812;11.762;2022-09-27T17:49:00;7.50;99.90
22161;DHT22;49035;48.812;11.762;2022-09-27T17:51:50;7.50;99.90
22161;DHT22;49035;48.812;11.762;2022-09-27T17:54:16;7.50;99.90
22161;DHT22;49035;48.812;11.762;2022-09-27T17:56:44;7.40;99.90
22161;DHT22;49035;48.812;11.762;2022-09-27T17:59:11;7.50;99.90
22161;DHT22;49035;48.812;11.762;2022-09-27T18:01:38;7.50;99.90
22161;DHT22;49035;48.812;11.762;2022-09-27T18:04:06;7.50;99.90
22161;DHT22;49035;48.812;11.762;2022-09-27T18:06:36;7.40;99.90
22161;DHT22;49035;48.812;11.762;2022-09-27T18:09:05;7.30;99.90
22161;DHT22;49035;48.812;11.762;2022-09-27T18:11:32;7.30;99.90
22161;DHT22;49035;48.812;11.762;2022-09-27T18:14:01;7.40;99.90
22161;DHT22;49035;48.812;11.762;2022-09-27T18:16:28;7.50;99.90